• Join FlightAware (Why Join?)
  • Login
  • US Flag 
03:01PM EDT


 

Airport Tracker/Info


-or-


 

Live Flight TrackerFlight Track Log ✈ AWE3390 ✈ 26-Apr-2013 ✈ KRSW - KDCA

Flight Track Log - Related Links

Times and Time Zones

All times are in EDT time to prevent confusion due to time zone crossing. See the AWE3390 flight status page for this flight to view local times or setup timezone preferences in your user account.

Time Position Orientation Groundspeed Altitude Reporting Facility
EDT Latitude Longitude Course Direction KTS MPH feet Rate Location/Type
12:33PM 26.8668 -81.7333 North  Level FlightAware Approximate
12:33PM 26.6483 -81.6722 339° North 224 258 5,000  Level Miami Center
12:34PM 26.9783 -81.7333 North  Level FlightAware Approximate
12:34PM 26.7211 -81.6869 350° North 230 265 7,700  Level Miami Center
12:35PM 27.0856 -81.7609 340° North  Level FlightAware Approximate
12:35PM 26.7978 -81.7017 350° North 257 296 10,100  Level Miami Center
12:36PM 27.1934 -81.7922 343° North  Level FlightAware Approximate
12:36PM 26.8806 -81.7189 349° North 282 325 11,700  Level Miami Center
12:37PM 27.2987 -81.8327 336° Northwest  Level FlightAware Approximate
12:37PM 26.9678 -81.7367 350° North 305 351 13,800  Level Miami Center
12:38PM 27.4044 -81.8661 339° North  Level FlightAware Approximate
12:38PM 27.0547 -81.7567 348° North 315 362 15,700  Level Miami Center
12:39PM 27.1456 -81.7861 344° North 320 368 17,200 1,380 Climbing Miami Center
12:40PM 27.2489 -81.8186 344° North 337 388 18,500 1,380 Climbing Miami Center
12:41PM 27.3356 -81.8478 343° North 347 399 20,000 1,500 Climbing Miami Center
12:42PM 27.4325 -81.8803 343° North 358 412 21,500 1,380 Climbing Miami Center
12:44PM 27.5611 -81.8450 22° Northeast  Level FlightAware Approximate
12:44PM 27.6417 -81.8683 22° Northeast 360 414 24,200  Level Miami Center
12:45PM 27.7375 -81.8092 29° Northeast 378 435 25,100 840 Climbing Miami Center
12:46PM 27.8289 -81.7592 26° Northeast 393 452 25,900 960 Climbing Miami Center
12:47PM 27.9331 -81.7025 26° Northeast 398 458 27,100 1,200 Climbing Miami Center
12:48PM 28.0461 -81.6886 North 398 458 28,400 1,080 Climbing Miami Center
12:49PM 28.1611 -81.6817 North 398 458 29,300 900 Climbing Miami Center
12:50PM 28.2764 -81.6725 North 404 465 30,200 1,020 Climbing Miami Center
12:51PM 28.4236 -81.6653 North 430 495 31,600 1,200 Climbing Jacksonville Center
12:52PM 28.5364 -81.6567 North 422 486 32,900 1,140 Climbing Jacksonville Center
12:53PM 28.6511 -81.6458 North 409 471 33,900 900 Climbing Jacksonville Center
12:54PM 28.7636 -81.6372 North 403 464 34,700 540 Climbing Jacksonville Center
12:55PM 28.8761 -81.6289 North 403 464 35,000 120 Climbing Jacksonville Center
12:56PM 28.9889 -81.6178 North 403 464 35,000  Level Jacksonville Center
12:57PM 29.0994 -81.6117 North 403 464 35,000  Level Jacksonville Center
12:58PM 29.2100 -81.6031 North 403 464 35,000  Level Jacksonville Center
12:59PM 29.3267 -81.5944 North 398 458 35,000  Level Jacksonville Center
01:00PM 29.4353 -81.5833 North 398 458 35,000  Level Jacksonville Center
01:01PM 29.5478 -81.5747 North 392 451 35,000  Level Jacksonville Center
01:02PM 29.6564 -81.5661 North 392 451 35,000  Level Jacksonville Center
01:03PM 29.7647 -81.5575 North 392 451 35,000  Level Jacksonville Center
01:04PM 29.8733 -81.5489 North 387 445 35,000  Level Jacksonville Center
01:05PM 29.9817 -81.5400 North 387 445 35,000  Level Jacksonville Center
01:06PM 30.0817 -81.5317 North 387 445 35,000  Level Jacksonville Center
01:07PM 30.1903 -81.5228 North 387 445 35,000  Level Jacksonville Center
01:08PM 30.3008 -81.5117 North 387 445 35,000  Level Jacksonville Center
01:09PM 30.4092 -81.5028 North 387 445 35,000  Level Jacksonville Center
01:10PM 30.5178 -81.4964 North 387 445 35,000  Level Jacksonville Center
01:11PM 30.6261 -81.4875 North 387 445 35,000  Level Jacksonville Center
01:12PM 30.7367 -81.4786 North 387 445 35,000  Level Jacksonville Center
01:13PM 30.8408 -81.4408 17° North 387 445 35,000  Level Jacksonville Center
01:14PM 30.9422 -81.3764 29° Northeast 392 451 35,000  Level Jacksonville Center
01:15PM 31.0439 -81.3164 27° Northeast 397 457 35,000  Level Jacksonville Center
01:16PM 31.1475 -81.2517 28° Northeast 403 464 35,000  Level Jacksonville Center
01:17PM 31.2489 -81.1892 28° Northeast 408 470 35,000  Level Jacksonville Center
01:18PM 31.3525 -81.1217 29° Northeast 408 470 35,000  Level Jacksonville Center
01:19PM 31.4642 -81.0536 27° Northeast 414 476 35,000  Level Jacksonville Center
01:20PM 31.5697 -80.9881 28° Northeast 414 476 35,000  Level Jacksonville Center
01:21PM 31.6608 -80.9325 27° Northeast 404 465 35,000  Level Jacksonville Center
01:22PM 31.7767 -80.8617 27° Northeast 409 471 35,000  Level Jacksonville Center
01:23PM 31.8758 -80.8008 28° Northeast 404 465 35,000  Level Jacksonville Center
01:24PM 31.9811 -80.7347 28° Northeast 404 465 35,000  Level Jacksonville Center
01:25PM 32.0822 -80.6711 28° Northeast 404 465 35,000  Level Jacksonville Center
01:26PM 32.1731 -80.6150 28° Northeast 404 465 35,000  Level Jacksonville Center
01:27PM 32.2783 -80.5483 28° Northeast 404 465 35,000  Level Jacksonville Center
01:28PM 32.3817 -80.4842 28° Northeast 404 465 35,000  Level Jacksonville Center
01:29PM 32.4825 -80.4175 29° Northeast 404 465 35,000  Level Jacksonville Center
01:30PM 32.5836 -80.3531 28° Northeast 404 465 35,000  Level Jacksonville Center
01:31PM 32.6867 -80.2886 28° Northeast 404 465 35,000  Level Jacksonville Center
01:32PM 32.7878 -80.2239 28° Northeast 404 465 35,000  Level Jacksonville Center
01:33PM 32.8967 -80.1514 29° Northeast 404 465 35,000  Level Jacksonville Center
01:34PM 32.9975 -80.0839 29° Northeast 414 476 35,000  Level Jacksonville Center
01:35PM 33.1044 -80.0186 27° Northeast 414 476 35,000  Level Jacksonville Center
01:36PM 33.2033 -79.9583 27° Northeast 408 470 35,000  Level Jacksonville Center
01:37PM 33.3042 -79.8953 28° Northeast 401 461 35,000  Level Jacksonville Center
01:38PM 33.4028 -79.8297 29° Northeast 401 461 35,000  Level Jacksonville Center
01:39PM 33.4992 -79.7667 29° Northeast 401 461 35,000  Level Jacksonville Center
01:40PM 33.5978 -79.7033 28° Northeast 401 461 35,000  Level Jacksonville Center
01:41PM 33.6964 -79.6375 29° Northeast 396 456 35,000  Level Jacksonville Center
01:42PM 33.7950 -79.5764 27° Northeast 396 456 35,000  Level Jacksonville Center
01:43PM 33.8956 -79.5200 25° Northeast 396 456 35,000  Level Jacksonville Center
01:44PM 33.9942 -79.4611 26° Northeast 391 450 35,000  Level Jacksonville Center
01:47PM 34.1922 -79.3478 25° Northeast 385 443 35,000  Level Washington Center
01:48PM 34.2900 -79.2869 27° Northeast 385 443 35,000  Level Washington Center
01:49PM 34.3856 -79.2333 25° Northeast 385 443 35,000  Level Washington Center
01:50PM 34.4811 -79.1797 25° Northeast 380 437 35,000  Level Washington Center
01:51PM 34.5744 -79.1233 26° Northeast 380 437 35,000  Level Washington Center
01:52PM 34.6700 -79.0692 25° Northeast 375 432 35,000  Level Washington Center
01:53PM 34.7614 -79.0125 27° Northeast 370 426 35,000  Level Washington Center
01:54PM 34.8569 -78.9558 26° Northeast 370 426 35,000  Level Washington Center
01:55PM 34.9503 -78.8989 27° Northeast 370 426 35,000  Level Washington Center
01:56PM 35.0436 -78.8444 26° Northeast 370 426 35,000  Level Washington Center
01:57PM 35.1389 -78.7872 26° Northeast 370 426 35,000  Level Washington Center
01:58PM 35.2344 -78.7300 26° Northeast 370 426 35,000 -120 Level Washington Center
01:59PM 35.3319 -78.6725 26° Northeast 375 432 34,800 -600 Descending Washington Center
02:00PM 35.4358 -78.6078 27° Northeast 380 437 33,900 -900 Descending Washington Center
02:01PM 35.5247 -78.5550 26° Northeast 380 437 33,100 -1,380 Descending Washington Center
02:02PM 35.6369 -78.4875 26° Northeast 385 443 31,300 -1,980 Descending Washington Center
02:03PM 35.7322 -78.4297 26° Northeast 391 450 29,200 -1,140 Descending Washington Center
02:04PM 35.8256 -78.3717 27° Northeast 381 438 29,000 -120 Descending Washington Center
02:05PM 35.9247 -78.3136 25° Northeast 381 438 29,000  Level Washington Center
02:06PM 36.0181 -78.2550 27° Northeast 381 438 29,000  Level Washington Center
02:07PM 36.1131 -78.1967 26° Northeast 381 438 29,000 -60 Level Washington Center
02:08PM 36.2103 -78.1381 26° Northeast 381 438 28,900 -1,020 Descending Washington Center
02:09PM 36.3014 -78.0817 27° Northeast 375 432 27,000 -960 Descending Washington Center
02:10PM 36.3922 -78.0225 28° Northeast 369 425 27,000  Level Washington Center
02:11PM 36.4725 -77.9708 27° Northeast 362 417 27,000 -300 Level Washington Center
02:12PM 36.5633 -77.9142 27° Northeast 362 417 26,500 -720 Descending Washington Center
02:13PM 36.6564 -77.8575 26° Northeast 362 417 25,600 -900 Descending Washington Center
02:14PM 36.7492 -77.8006 26° Northeast 368 423 24,700 -840 Descending Washington Center
02:15PM 36.8442 -77.7383 28° Northeast 373 429 24,000 -360 Descending Washington Center
02:16PM 36.9347 -77.6811 27° Northeast 373 429 24,000  Level Washington Center
02:17PM 37.0275 -77.6236 26° Northeast 373 429 24,000 -240 Level Washington Center
02:18PM 37.1206 -77.5636 27° Northeast 373 429 23,600 -660 Descending Washington Center
02:19PM 37.2131 -77.5061 26° Northeast 373 429 22,700 -840 Descending Washington Center
02:20PM 37.3058 -77.4483 26° Northeast 373 429 22,000 -360 Descending Washington Center
02:21PM 37.4006 -77.3853 28° Northeast 373 429 22,000  Level Washington Center
02:22PM 37.4911 -77.3272 27° Northeast 373 429 22,000  Level Washington Center
02:23PM 37.5917 -77.3033 11° North 362 417 22,000 -300 Level Washington Center
02:24PM 37.6900 -77.2819 10° North 357 411 21,500 -1,200 Descending Washington Center
02:25PM 37.7903 -77.2631 North 357 411 19,600 -1,800 Descending Washington Center
02:26PM 37.8844 -77.2414 10° North 351 404 17,900 -1,860 Descending Washington Center
02:27PM 37.9767 -77.2225 North 346 398 15,900 -1,860 Descending Washington Center
02:28PM 38.0686 -77.2058 North 335 386 14,200 -1,740 Descending Washington Center
02:29PM 38.1564 -77.1867 10° North 330 380 12,500 -1,800 Descending Washington Center
02:30PM 38.2464 -77.1647 11° North 330 380 10,700 -1,380 Descending Washington Center
02:31PM 38.3278 -77.1481 North 320 368 9,800 -1,140 Descending Washington Center
02:32PM 38.4033 -77.1231 15° North 291 335 8,500 -1,440 Descending Washington Center
02:33PM 38.4767 -77.0953 17° North 277 319 7,000 -1,440 Descending Washington Center
02:34PM 38.5478 -77.0703 15° North 270 311 5,600 -1,320 Descending Washington Center
02:35PM 38.6189 -77.0558 North 259 298 4,400 -1,380 Descending Washington Center
02:35PM 38.6500 -77.0500 North 237 273 3,800 -1,800 Descending Potomac TRACON